sensor_id;sensor_type;location;lat;lon;timestamp;P1;durP1;ratioP1;P2;durP2;ratioP2
49842;SDS011;55559;48.898;9.184;2023-04-25T00:01:27;2.55;;;0.50;;
49842;SDS011;55559;48.898;9.184;2023-04-25T00:03:56;1.23;;;0.40;;
49842;SDS011;55559;48.898;9.184;2023-04-25T00:06:24;1.00;;;0.50;;
49842;SDS011;55559;48.898;9.184;2023-04-25T00:08:52;1.05;;;0.50;;
49842;SDS011;55559;48.898;9.184;2023-04-25T00:11:21;2.53;;;0.60;;
49842;SDS011;55559;48.898;9.184;2023-04-25T00:13:48;2.70;;;0.52;;
49842;SDS011;55559;48.898;9.184;2023-04-25T00:16:16;3.15;;;0.80;;
49842;SDS011;55559;48.898;9.184;2023-04-25T00:18:44;1.90;;;0.60;;
49842;SDS011;55559;48.898;9.184;2023-04-25T00:21:18;4.55;;;0.60;;
49842;SDS011;55559;48.898;9.184;2023-04-25T00:23:45;3.45;;;0.70;;
49842;SDS011;55559;48.898;9.184;2023-04-25T00:26:13;4.63;;;0.90;;
49842;SDS011;55559;48.898;9.184;2023-04-25T00:28:40;3.90;;;0.70;;
49842;SDS011;55559;48.898;9.184;2023-04-25T00:31:08;3.08;;;0.80;;
49842;SDS011;55559;48.898;9.184;2023-04-25T00:33:35;2.50;;;0.60;;
49842;SDS011;55559;48.898;9.184;2023-04-25T00:36:03;5.20;;;0.80;;
49842;SDS011;55559;48.898;9.184;2023-04-25T00:38:32;4.97;;;0.90;;
49842;SDS011;55559;48.898;9.184;2023-04-25T00:41:00;3.97;;;1.00;;
49842;SDS011;55559;48.898;9.184;2023-04-25T00:43:27;3.95;;;0.80;;
49842;SDS011;55559;48.898;9.184;2023-04-25T00:45:57;2.17;;;0.85;;
49842;SDS011;55559;48.898;9.184;2023-04-25T00:48:26;2.90;;;0.68;;
49842;SDS011;55559;48.898;9.184;2023-04-25T00:50:54;4.18;;;0.70;;
49842;SDS011;55559;48.898;9.184;2023-04-25T00:53:24;1.60;;;0.80;;
49842;SDS011;55559;48.898;9.184;2023-04-25T00:55:54;2.03;;;0.82;;
49842;SDS011;55559;48.898;9.184;2023-04-25T00:58:22;2.20;;;0.70;;
49842;SDS011;55559;48.898;9.184;2023-04-25T01:00:50;3.55;;;0.60;;
49842;SDS011;55559;48.898;9.184;2023-04-25T01:03:19;2.03;;;0.60;;
49842;SDS011;55559;48.898;9.184;2023-04-25T01:05:47;3.83;;;0.80;;
49842;SDS011;55559;48.898;9.184;2023-04-25T01:08:15;3.08;;;1.00;;
49842;SDS011;55559;48.898;9.184;2023-04-25T01:10:42;3.53;;;0.90;;
49842;SDS011;55559;48.898;9.184;2023-04-25T01:13:11;3.20;;;1.00;;
49842;SDS011;55559;48.898;9.184;2023-04-25T01:15:39;4.30;;;1.10;;
49842;SDS011;55559;48.898;9.184;2023-04-25T01:18:06;2.50;;;0.80;;
49842;SDS011;55559;48.898;9.184;2023-04-25T01:20:34;5.75;;;0.90;;
49842;SDS011;55559;48.898;9.184;2023-04-25T01:23:05;2.60;;;0.82;;
49842;SDS011;55559;48.898;9.184;2023-04-25T01:25:33;4.40;;;0.60;;
49842;SDS011;55559;48.898;9.184;2023-04-25T01:28:01;3.08;;;0.80;;
49842;SDS011;55559;48.898;9.184;2023-04-25T01:30:28;1.33;;;0.80;;
49842;SDS011;55559;48.898;9.184;2023-04-25T01:32:56;2.35;;;0.90;;
49842;SDS011;55559;48.898;9.184;2023-04-25T01:35:24;3.10;;;0.73;;
49842;SDS011;55559;48.898;9.184;2023-04-25T01:37:55;1.80;;;0.65;;
49842;SDS011;55559;48.898;9.184;2023-04-25T01:40:24;4.15;;;0.60;;
49842;SDS011;55559;48.898;9.184;2023-04-25T01:42:51;1.42;;;0.60;;
49842;SDS011;55559;48.898;9.184;2023-04-25T01:45:20;1.90;;;0.70;;
49842;SDS011;55559;48.898;9.184;2023-04-25T01:47:47;1.85;;;0.80;;
49842;SDS011;55559;48.898;9.184;2023-04-25T01:50:16;1.42;;;0.70;;
49842;SDS011;55559;48.898;9.184;2023-04-25T01:52:45;4.22;;;0.70;;
49842;SDS011;55559;48.898;9.184;2023-04-25T01:55:13;2.70;;;0.80;;
49842;SDS011;55559;48.898;9.184;2023-04-25T01:58:05;6.50;;;0.90;;
49842;SDS011;55559;48.898;9.184;2023-04-25T02:00:54;3.78;;;1.08;;
49842;SDS011;55559;48.898;9.184;2023-04-25T02:03:24;3.83;;;0.70;;
49842;SDS011;55559;48.898;9.184;2023-04-25T02:05:52;3.90;;;1.38;;
49842;SDS011;55559;48.898;9.184;2023-04-25T02:08:20;3.03;;;0.60;;
49842;SDS011;55559;48.898;9.184;2023-04-25T02:10:48;1.55;;;0.70;;
49842;SDS011;55559;48.898;9.184;2023-04-25T02:13:20;8.13;;;0.80;;
49842;SDS011;55559;48.898;9.184;2023-04-25T02:16:00;2.42;;;0.80;;
49842;SDS011;55559;48.898;9.184;2023-04-25T02:18:30;2.78;;;0.90;;
49842;SDS011;55559;48.898;9.184;2023-04-25T02:20:58;5.18;;;1.08;;
49842;SDS011;55559;48.898;9.184;2023-04-25T02:23:27;2.60;;;0.70;;
49842;SDS011;55559;48.898;9.184;2023-04-25T02:25:55;1.23;;;0.70;;
49842;SDS011;55559;48.898;9.184;2023-04-25T02:28:25;1.88;;;0.70;;
49842;SDS011;55559;48.898;9.184;2023-04-25T02:30:52;3.33;;;0.70;;
49842;SDS011;55559;48.898;9.184;2023-04-25T02:33:20;2.67;;;0.80;;
49842;SDS011;55559;48.898;9.184;2023-04-25T02:35:47;3.38;;;0.80;;
49842;SDS011;55559;48.898;9.184;2023-04-25T02:38:15;6.35;;;0.90;;
49842;SDS011;55559;48.898;9.184;2023-04-25T02:40:42;4.65;;;0.90;;
49842;SDS011;55559;48.898;9.184;2023-04-25T02:43:10;6.15;;;0.85;;
49842;SDS011;55559;48.898;9.184;2023-04-25T02:45:39;2.97;;;0.95;;
49842;SDS011;55559;48.898;9.184;2023-04-25T02:48:06;5.22;;;1.17;;
49842;SDS011;55559;48.898;9.184;2023-04-25T02:50:34;5.88;;;0.90;;
49842;SDS011;55559;48.898;9.184;2023-04-25T02:53:01;2.60;;;1.05;;
49842;SDS011;55559;48.898;9.184;2023-04-25T02:55:35;3.55;;;0.77;;
49842;SDS011;55559;48.898;9.184;2023-04-25T02:58:04;2.72;;;1.02;;
49842;SDS011;55559;48.898;9.184;2023-04-25T03:00:48;6.00;;;2.00;;
49842;SDS011;55559;48.898;9.184;2023-04-25T03:03:16;4.47;;;1.15;;
49842;SDS011;55559;48.898;9.184;2023-04-25T03:05:47;3.90;;;1.10;;
49842;SDS011;55559;48.898;9.184;2023-04-25T03:08:18;2.90;;;0.85;;
49842;SDS011;55559;48.898;9.184;2023-04-25T03:10:45;10.82;;;0.80;;
49842;SDS011;55559;48.898;9.184;2023-04-25T03:13:14;2.70;;;0.90;;
49842;SDS011;55559;48.898;9.184;2023-04-25T03:15:43;3.42;;;0.90;;
49842;SDS011;55559;48.898;9.184;2023-04-25T03:18:12;3.28;;;0.85;;
49842;SDS011;55559;48.898;9.184;2023-04-25T03:20:39;2.13;;;0.90;;
49842;SDS011;55559;48.898;9.184;2023-04-25T03:23:08;2.80;;;1.00;;
49842;SDS011;55559;48.898;9.184;2023-04-25T03:25:38;3.08;;;1.30;;
49842;SDS011;55559;48.898;9.184;2023-04-25T03:28:06;2.78;;;0.98;;
49842;SDS011;55559;48.898;9.184;2023-04-25T03:30:33;3.55;;;0.95;;
49842;SDS011;55559;48.898;9.184;2023-04-25T03:33:01;1.85;;;0.80;;
49842;SDS011;55559;48.898;9.184;2023-04-25T03:35:30;3.88;;;0.93;;
49842;SDS011;55559;48.898;9.184;2023-04-25T03:37:57;4.63;;;1.00;;
49842;SDS011;55559;48.898;9.184;2023-04-25T03:40:29;3.05;;;0.98;;
49842;SDS011;55559;48.898;9.184;2023-04-25T03:43:17;2.58;;;1.10;;
49842;SDS011;55559;48.898;9.184;2023-04-25T03:45:53;4.38;;;1.10;;
49842;SDS011;55559;48.898;9.184;2023-04-25T03:48:22;2.75;;;1.20;;
49842;SDS011;55559;48.898;9.184;2023-04-25T03:50:52;10.07;;;1.50;;
49842;SDS011;55559;48.898;9.184;2023-04-25T03:53:19;3.08;;;0.80;;
49842;SDS011;55559;48.898;9.184;2023-04-25T03:56:19;4.47;;;0.90;;
49842;SDS011;55559;48.898;9.184;2023-04-25T03:58:55;1.40;;;0.70;;
49842;SDS011;55559;48.898;9.184;2023-04-25T04:01:24;4.90;;;1.10;;
49842;SDS011;55559;48.898;9.184;2023-04-25T04:03:51;2.78;;;1.52;;
49842;SDS011;55559;48.898;9.184;2023-04-25T04:06:20;5.47;;;1.20;;
49842;SDS011;55559;48.898;9.184;2023-04-25T04:08:53;3.38;;;1.13;;
49842;SDS011;55559;48.898;9.184;2023-04-25T04:11:23;3.22;;;1.52;;
49842;SDS011;55559;48.898;9.184;2023-04-25T04:13:51;4.07;;;1.20;;
49842;SDS011;55559;48.898;9.184;2023-04-25T04:16:19;4.55;;;1.63;;
49842;SDS011;55559;48.898;9.184;2023-04-25T04:18:47;4.07;;;1.35;;
49842;SDS011;55559;48.898;9.184;2023-04-25T04:21:14;7.20;;;1.83;;
49842;SDS011;55559;48.898;9.184;2023-04-25T04:23:43;3.38;;;1.55;;
49842;SDS011;55559;48.898;9.184;2023-04-25T04:26:12;2.10;;;1.20;;
49842;SDS011;55559;48.898;9.184;2023-04-25T04:28:51;2.53;;;1.52;;
49842;SDS011;55559;48.898;9.184;2023-04-25T04:31:36;3.53;;;1.55;;
49842;SDS011;55559;48.898;9.184;2023-04-25T04:34:04;5.57;;;1.50;;
49842;SDS011;55559;48.898;9.184;2023-04-25T04:36:33;4.10;;;1.88;;
49842;SDS011;55559;48.898;9.184;2023-04-25T04:39:05;4.13;;;1.63;;
49842;SDS011;55559;48.898;9.184;2023-04-25T04:41:38;2.38;;;1.10;;
49842;SDS011;55559;48.898;9.184;2023-04-25T04:44:10;6.22;;;1.83;;
49842;SDS011;55559;48.898;9.184;2023-04-25T04:46:44;4.72;;;1.75;;
49842;SDS011;55559;48.898;9.184;2023-04-25T04:49:32;4.32;;;1.50;;
49842;SDS011;55559;48.898;9.184;2023-04-25T04:52:28;3.50;;;1.25;;
49842;SDS011;55559;48.898;9.184;2023-04-25T04:55:05;2.03;;;1.25;;
49842;SDS011;55559;48.898;9.184;2023-04-25T04:57:53;1.90;;;1.10;;
49842;SDS011;55559;48.898;9.184;2023-04-25T05:00:56;2.55;;;1.20;;
49842;SDS011;55559;48.898;9.184;2023-04-25T05:03:33;3.53;;;1.83;;
49842;SDS011;55559;48.898;9.184;2023-04-25T05:06:00;7.72;;;1.90;;
49842;SDS011;55559;48.898;9.184;2023-04-25T05:08:31;3.03;;;1.33;;
49842;SDS011;55559;48.898;9.184;2023-04-25T05:11:15;2.88;;;1.92;;
49842;SDS011;55559;48.898;9.184;2023-04-25T05:14:08;3.40;;;2.03;;
49842;SDS011;55559;48.898;9.184;2023-04-25T05:16:46;4.03;;;1.52;;
49842;SDS011;55559;48.898;9.184;2023-04-25T05:19:36;4.65;;;2.08;;
49842;SDS011;55559;48.898;9.184;2023-04-25T05:22:22;2.58;;;1.55;;
49842;SDS011;55559;48.898;9.184;2023-04-25T05:25:10;5.50;;;2.25;;
49842;SDS011;55559;48.898;9.184;2023-04-25T05:27:59;5.40;;;2.20;;
49842;SDS011;55559;48.898;9.184;2023-04-25T05:30:49;3.78;;;2.03;;
49842;SDS011;55559;48.898;9.184;2023-04-25T05:33:26;4.82;;;1.70;;
49842;SDS011;55559;48.898;9.184;2023-04-25T05:35:54;4.03;;;2.45;;
49842;SDS011;55559;48.898;9.184;2023-04-25T05:38:23;7.15;;;2.17;;
49842;SDS011;55559;48.898;9.184;2023-04-25T05:41:16;4.78;;;3.03;;
49842;SDS011;55559;48.898;9.184;2023-04-25T05:44:13;6.28;;;1.58;;
49842;SDS011;55559;48.898;9.184;2023-04-25T05:47:00;3.92;;;1.70;;
49842;SDS011;55559;48.898;9.184;2023-04-25T05:49:43;4.10;;;1.85;;
49842;SDS011;55559;48.898;9.184;2023-04-25T05:52:43;10.10;;;2.33;;
49842;SDS011;55559;48.898;9.184;2023-04-25T05:55:23;5.10;;;2.10;;
49842;SDS011;55559;48.898;9.184;2023-04-25T05:57:50;2.83;;;1.90;;
49842;SDS011;55559;48.898;9.184;2023-04-25T06:00:19;2.78;;;2.08;;
49842;SDS011;55559;48.898;9.184;2023-04-25T06:02:48;4.40;;;1.80;;
49842;SDS011;55559;48.898;9.184;2023-04-25T06:05:17;2.75;;;1.77;;
49842;SDS011;55559;48.898;9.184;2023-04-25T06:07:46;3.30;;;1.75;;
49842;SDS011;55559;48.898;9.184;2023-04-25T06:10:14;7.78;;;1.73;;
49842;SDS011;55559;48.898;9.184;2023-04-25T06:12:41;3.65;;;1.13;;
49842;SDS011;55559;48.898;9.184;2023-04-25T06:15:10;2.28;;;1.40;;
49842;SDS011;55559;48.898;9.184;2023-04-25T06:17:39;3.30;;;1.75;;
49842;SDS011;55559;48.898;9.184;2023-04-25T06:20:07;10.73;;;1.38;;
49842;SDS011;55559;48.898;9.184;2023-04-25T06:22:35;1.60;;;1.42;;
49842;SDS011;55559;48.898;9.184;2023-04-25T06:25:03;2.17;;;1.00;;
49842;SDS011;55559;48.898;9.184;2023-04-25T06:27:33;1.70;;;1.38;;
49842;SDS011;55559;48.898;9.184;2023-04-25T06:30:01;1.83;;;1.17;;
49842;SDS011;55559;48.898;9.184;2023-04-25T06:32:31;2.75;;;1.20;;
49842;SDS011;55559;48.898;9.184;2023-04-25T06:35:01;2.17;;;1.25;;
49842;SDS011;55559;48.898;9.184;2023-04-25T06:37:29;1.85;;;1.17;;
49842;SDS011;55559;48.898;9.184;2023-04-25T06:39:57;2.65;;;1.15;;
49842;SDS011;55559;48.898;9.184;2023-04-25T06:42:24;1.70;;;1.40;;
49842;SDS011;55559;48.898;9.184;2023-04-25T06:44:56;5.70;;;0.93;;
49842;SDS011;55559;48.898;9.184;2023-04-25T06:47:24;1.55;;;0.90;;
49842;SDS011;55559;48.898;9.184;2023-04-25T06:49:51;3.60;;;0.80;;
49842;SDS011;55559;48.898;9.184;2023-04-25T06:52:21;2.00;;;0.90;;
49842;SDS011;55559;48.898;9.184;2023-04-25T06:54:51;1.40;;;0.80;;
49842;SDS011;55559;48.898;9.184;2023-04-25T06:57:38;1.90;;;1.23;;
49842;SDS011;55559;48.898;9.184;2023-04-25T07:00:29;2.03;;;0.98;;
49842;SDS011;55559;48.898;9.184;2023-04-25T07:02:58;2.60;;;1.10;;
49842;SDS011;55559;48.898;9.184;2023-04-25T07:05:25;2.92;;;1.00;;
49842;SDS011;55559;48.898;9.184;2023-04-25T07:07:55;2.63;;;1.55;;
49842;SDS011;55559;48.898;9.184;2023-04-25T07:10:23;2.33;;;1.20;;
49842;SDS011;55559;48.898;9.184;2023-04-25T07:12:50;2.78;;;1.25;;
49842;SDS011;55559;48.898;9.184;2023-04-25T07:15:18;1.67;;;1.13;;
49842;SDS011;55559;48.898;9.184;2023-04-25T07:17:47;2.95;;;1.30;;
49842;SDS011;55559;48.898;9.184;2023-04-25T07:20:15;2.17;;;1.42;;
49842;SDS011;55559;48.898;9.184;2023-04-25T07:22:42;4.13;;;2.17;;
49842;SDS011;55559;48.898;9.184;2023-04-25T07:25:12;3.58;;;2.03;;
49842;SDS011;55559;48.898;9.184;2023-04-25T07:27:40;2.65;;;1.33;;
49842;SDS011;55559;48.898;9.184;2023-04-25T07:30:14;4.03;;;1.80;;
49842;SDS011;55559;48.898;9.184;2023-04-25T07:32:42;3.17;;;2.08;;
49842;SDS011;55559;48.898;9.184;2023-04-25T07:35:10;2.53;;;2.10;;
49842;SDS011;55559;48.898;9.184;2023-04-25T07:37:40;1.90;;;1.45;;
49842;SDS011;55559;48.898;9.184;2023-04-25T07:40:15;3.42;;;2.38;;
49842;SDS011;55559;48.898;9.184;2023-04-25T07:42:57;3.10;;;2.33;;
49842;SDS011;55559;48.898;9.184;2023-04-25T07:45:45;5.43;;;2.15;;
49842;SDS011;55559;48.898;9.184;2023-04-25T07:48:16;4.43;;;2.55;;
49842;SDS011;55559;48.898;9.184;2023-04-25T07:50:46;3.65;;;2.22;;
49842;SDS011;55559;48.898;9.184;2023-04-25T07:53:14;5.85;;;1.73;;
49842;SDS011;55559;48.898;9.184;2023-04-25T07:55:51;3.28;;;2.95;;
49842;SDS011;55559;48.898;9.184;2023-04-25T07:58:20;3.75;;;3.08;;
49842;SDS011;55559;48.898;9.184;2023-04-25T08:00:50;8.02;;;3.63;;
49842;SDS011;55559;48.898;9.184;2023-04-25T08:03:33;5.15;;;3.20;;
49842;SDS011;55559;48.898;9.184;2023-04-25T08:06:04;7.70;;;3.65;;
49842;SDS011;55559;48.898;9.184;2023-04-25T08:08:38;4.30;;;3.42;;
49842;SDS011;55559;48.898;9.184;2023-04-25T08:11:09;12.73;;;4.95;;
49842;SDS011;55559;48.898;9.184;2023-04-25T08:13:37;9.00;;;4.70;;
49842;SDS011;55559;48.898;9.184;2023-04-25T08:16:05;7.60;;;4.43;;
49842;SDS011;55559;48.898;9.184;2023-04-25T08:18:34;7.03;;;3.85;;
49842;SDS011;55559;48.898;9.184;2023-04-25T08:21:01;3.88;;;3.55;;
49842;SDS011;55559;48.898;9.184;2023-04-25T08:23:29;4.40;;;3.53;;
49842;SDS011;55559;48.898;9.184;2023-04-25T08:26:24;6.65;;;4.55;;
49842;SDS011;55559;48.898;9.184;2023-04-25T08:28:52;7.63;;;4.75;;
49842;SDS011;55559;48.898;9.184;2023-04-25T08:31:21;5.55;;;4.50;;
49842;SDS011;55559;48.898;9.184;2023-04-25T08:33:58;6.63;;;4.78;;
49842;SDS011;55559;48.898;9.184;2023-04-25T08:36:47;4.05;;;2.85;;
49842;SDS011;55559;48.898;9.184;2023-04-25T08:39:20;2.65;;;1.73;;
49842;SDS011;55559;48.898;9.184;2023-04-25T08:42:21;3.17;;;2.88;;
49842;SDS011;55559;48.898;9.184;2023-04-25T08:44:52;3.13;;;2.80;;
49842;SDS011;55559;48.898;9.184;2023-04-25T08:47:24;6.05;;;4.13;;
49842;SDS011;55559;48.898;9.184;2023-04-25T08:49:56;7.45;;;5.40;;
49842;SDS011;55559;48.898;9.184;2023-04-25T08:52:24;5.22;;;4.70;;
49842;SDS011;55559;48.898;9.184;2023-04-25T08:54:57;4.63;;;4.20;;
49842;SDS011;55559;48.898;9.184;2023-04-25T08:57:28;7.55;;;5.18;;
49842;SDS011;55559;48.898;9.184;2023-04-25T08:59:58;5.68;;;5.00;;
49842;SDS011;55559;48.898;9.184;2023-04-25T09:02:27;6.75;;;4.75;;
49842;SDS011;55559;48.898;9.184;2023-04-25T09:04:55;8.88;;;5.15;;
49842;SDS011;55559;48.898;9.184;2023-04-25T09:07:24;7.10;;;4.32;;
49842;SDS011;55559;48.898;9.184;2023-04-25T09:09:53;6.07;;;5.57;;
49842;SDS011;55559;48.898;9.184;2023-04-25T09:12:21;7.40;;;5.60;;
49842;SDS011;55559;48.898;9.184;2023-04-25T09:15:05;13.55;;;5.53;;
49842;SDS011;55559;48.898;9.184;2023-04-25T09:17:55;10.73;;;6.40;;
49842;SDS011;55559;48.898;9.184;2023-04-25T09:20:24;9.20;;;5.38;;
49842;SDS011;55559;48.898;9.184;2023-04-25T09:23:00;7.70;;;6.20;;
49842;SDS011;55559;48.898;9.184;2023-04-25T09:25:33;6.65;;;5.95;;
49842;SDS011;55559;48.898;9.184;2023-04-25T09:28:05;9.18;;;6.63;;
49842;SDS011;55559;48.898;9.184;2023-04-25T09:30:35;8.02;;;6.80;;
49842;SDS011;55559;48.898;9.184;2023-04-25T09:33:10;9.73;;;7.80;;
49842;SDS011;55559;48.898;9.184;2023-04-25T09:35:43;13.48;;;9.68;;
49842;SDS011;55559;48.898;9.184;2023-04-25T09:38:20;9.25;;;6.75;;
49842;SDS011;55559;48.898;9.184;2023-04-25T09:43:36;4.75;;;4.13;;
49842;SDS011;55559;48.898;9.184;2023-04-25T09:46:09;8.90;;;4.72;;
49842;SDS011;55559;48.898;9.184;2023-04-25T09:48:41;4.78;;;4.10;;
49842;SDS011;55559;48.898;9.184;2023-04-25T09:51:21;6.90;;;4.85;;
49842;SDS011;55559;48.898;9.184;2023-04-25T09:53:53;7.15;;;4.28;;
49842;SDS011;55559;48.898;9.184;2023-04-25T09:56:43;5.50;;;4.95;;
49842;SDS011;55559;48.898;9.184;2023-04-25T09:59:14;6.85;;;5.25;;
49842;SDS011;55559;48.898;9.184;2023-04-25T10:01:44;9.13;;;5.95;;
49842;SDS011;55559;48.898;9.184;2023-04-25T10:04:20;6.38;;;4.80;;
49842;SDS011;55559;48.898;9.184;2023-04-25T10:06:57;9.60;;;6.25;;
49842;SDS011;55559;48.898;9.184;2023-04-25T10:09:26;8.30;;;6.38;;
49842;SDS011;55559;48.898;9.184;2023-04-25T10:11:59;10.45;;;6.32;;
49842;SDS011;55559;48.898;9.184;2023-04-25T10:14:27;7.40;;;4.90;;
49842;SDS011;55559;48.898;9.184;2023-04-25T10:16:57;6.13;;;5.47;;
49842;SDS011;55559;48.898;9.184;2023-04-25T10:19:25;7.63;;;5.00;;
49842;SDS011;55559;48.898;9.184;2023-04-25T10:21:55;5.68;;;5.18;;
49842;SDS011;55559;48.898;9.184;2023-04-25T10:24:31;3.85;;;3.47;;
49842;SDS011;55559;48.898;9.184;2023-04-25T10:26:58;6.43;;;3.90;;
49842;SDS011;55559;48.898;9.184;2023-04-25T10:29:27;4.47;;;3.50;;
49842;SDS011;55559;48.898;9.184;2023-04-25T10:31:54;6.75;;;4.07;;
49842;SDS011;55559;48.898;9.184;2023-04-25T10:34:37;7.40;;;6.40;;
49842;SDS011;55559;48.898;9.184;2023-04-25T10:37:08;4.82;;;4.32;;
49842;SDS011;55559;48.898;9.184;2023-04-25T10:39:37;7.45;;;5.40;;
49842;SDS011;55559;48.898;9.184;2023-04-25T10:42:05;7.10;;;3.78;;
49842;SDS011;55559;48.898;9.184;2023-04-25T10:44:34;4.03;;;2.80;;
49842;SDS011;55559;48.898;9.184;2023-04-25T10:47:03;2.38;;;2.17;;
49842;SDS011;55559;48.898;9.184;2023-04-25T10:49:35;3.85;;;1.92;;
49842;SDS011;55559;48.898;9.184;2023-04-25T10:52:17;7.55;;;4.30;;
49842;SDS011;55559;48.898;9.184;2023-04-25T10:54:46;5.53;;;4.32;;
49842;SDS011;55559;48.898;9.184;2023-04-25T10:57:27;7.10;;;4.47;;
49842;SDS011;55559;48.898;9.184;2023-04-25T10:59:59;5.13;;;4.18;;
49842;SDS011;55559;48.898;9.184;2023-04-25T11:02:30;3.70;;;3.15;;
49842;SDS011;55559;48.898;9.184;2023-04-25T11:05:00;5.68;;;3.63;;
49842;SDS011;55559;48.898;9.184;2023-04-25T11:07:31;7.63;;;4.70;;
49842;SDS011;55559;48.898;9.184;2023-04-25T11:10:04;5.93;;;5.32;;
49842;SDS011;55559;48.898;9.184;2023-04-25T11:12:33;5.80;;;3.92;;
49842;SDS011;55559;48.898;9.184;2023-04-25T11:15:01;4.45;;;2.50;;
49842;SDS011;55559;48.898;9.184;2023-04-25T11:17:30;3.22;;;2.15;;
49842;SDS011;55559;48.898;9.184;2023-04-25T11:19:59;4.38;;;2.42;;
49842;SDS011;55559;48.898;9.184;2023-04-25T11:22:31;2.55;;;2.03;;
49842;SDS011;55559;48.898;9.184;2023-04-25T11:25:04;5.80;;;2.40;;
49842;SDS011;55559;48.898;9.184;2023-04-25T11:27:33;2.75;;;2.53;;
49842;SDS011;55559;48.898;9.184;2023-04-25T11:30:09;3.75;;;2.38;;
49842;SDS011;55559;48.898;9.184;2023-04-25T11:32:39;4.45;;;2.03;;
49842;SDS011;55559;48.898;9.184;2023-04-25T11:35:09;5.22;;;2.92;;
49842;SDS011;55559;48.898;9.184;2023-04-25T11:37:36;6.57;;;2.33;;
49842;SDS011;55559;48.898;9.184;2023-04-25T11:40:07;2.58;;;1.73;;
49842;SDS011;55559;48.898;9.184;2023-04-25T11:42:36;5.45;;;2.50;;
49842;SDS011;55559;48.898;9.184;2023-04-25T11:45:05;5.00;;;2.65;;
49842;SDS011;55559;48.898;9.184;2023-04-25T11:47:33;3.90;;;3.10;;
49842;SDS011;55559;48.898;9.184;2023-04-25T11:50:01;5.07;;;2.55;;
49842;SDS011;55559;48.898;9.184;2023-04-25T11:52:40;13.45;;;3.15;;
49842;SDS011;55559;48.898;9.184;2023-04-25T11:55:08;5.82;;;2.83;;
49842;SDS011;55559;48.898;9.184;2023-04-25T11:57:40;5.22;;;3.05;;
49842;SDS011;55559;48.898;9.184;2023-04-25T12:00:09;4.38;;;3.08;;
49842;SDS011;55559;48.898;9.184;2023-04-25T12:02:42;9.05;;;2.72;;
49842;SDS011;55559;48.898;9.184;2023-04-25T12:05:10;8.30;;;2.95;;
49842;SDS011;55559;48.898;9.184;2023-04-25T12:07:40;6.43;;;2.55;;
49842;SDS011;55559;48.898;9.184;2023-04-25T12:10:08;3.80;;;2.63;;
49842;SDS011;55559;48.898;9.184;2023-04-25T12:12:38;3.33;;;2.28;;
49842;SDS011;55559;48.898;9.184;2023-04-25T12:15:12;3.92;;;3.40;;
49842;SDS011;55559;48.898;9.184;2023-04-25T12:17:44;6.43;;;3.00;;
49842;SDS011;55559;48.898;9.184;2023-04-25T12:20:12;6.20;;;4.40;;
49842;SDS011;55559;48.898;9.184;2023-04-25T12:22:43;5.90;;;3.53;;
49842;SDS011;55559;48.898;9.184;2023-04-25T12:25:12;9.98;;;4.13;;
49842;SDS011;55559;48.898;9.184;2023-04-25T12:27:40;4.88;;;3.88;;
49842;SDS011;55559;48.898;9.184;2023-04-25T12:30:09;8.40;;;4.32;;
49842;SDS011;55559;48.898;9.184;2023-04-25T12:32:37;11.85;;;3.78;;
49842;SDS011;55559;48.898;9.184;2023-04-25T12:35:05;9.32;;;4.82;;
49842;SDS011;55559;48.898;9.184;2023-04-25T12:37:33;6.15;;;4.15;;
49842;SDS011;55559;48.898;9.184;2023-04-25T12:40:02;5.13;;;3.15;;
49842;SDS011;55559;48.898;9.184;2023-04-25T12:42:32;8.80;;;4.22;;
49842;SDS011;55559;48.898;9.184;2023-04-25T12:44:59;9.95;;;5.57;;
49842;SDS011;55559;48.898;9.184;2023-04-25T12:47:27;6.22;;;4.90;;
49842;SDS011;55559;48.898;9.184;2023-04-25T12:49:54;7.47;;;4.63;;
49842;SDS011;55559;48.898;9.184;2023-04-25T12:52:21;11.38;;;4.90;;
49842;SDS011;55559;48.898;9.184;2023-04-25T12:54:49;6.88;;;3.63;;
49842;SDS011;55559;48.898;9.184;2023-04-25T12:57:18;7.25;;;4.22;;
49842;SDS011;55559;48.898;9.184;2023-04-25T12:59:47;8.00;;;4.25;;
49842;SDS011;55559;48.898;9.184;2023-04-25T13:02:14;8.75;;;4.30;;
49842;SDS011;55559;48.898;9.184;2023-04-25T13:04:42;9.23;;;3.90;;
49842;SDS011;55559;48.898;9.184;2023-04-25T13:07:10;12.20;;;5.22;;
49842;SDS011;55559;48.898;9.184;2023-04-25T13:09:37;11.32;;;5.20;;
49842;SDS011;55559;48.898;9.184;2023-04-25T13:12:05;8.95;;;6.00;;
49842;SDS011;55559;48.898;9.184;2023-04-25T13:14:34;10.93;;;6.55;;
49842;SDS011;55559;48.898;9.184;2023-04-25T13:17:01;12.13;;;6.75;;
49842;SDS011;55559;48.898;9.184;2023-04-25T13:19:30;10.45;;;7.78;;
49842;SDS011;55559;48.898;9.184;2023-04-25T13:21:57;12.15;;;7.25;;
49842;SDS011;55559;48.898;9.184;2023-04-25T13:24:25;11.48;;;8.68;;
49842;SDS011;55559;48.898;9.184;2023-04-25T13:26:52;14.85;;;7.95;;
49842;SDS011;55559;48.898;9.184;2023-04-25T13:29:20;17.63;;;7.60;;
49842;SDS011;55559;48.898;9.184;2023-04-25T13:31:48;13.35;;;8.00;;
49842;SDS011;55559;48.898;9.184;2023-04-25T13:34:16;14.43;;;8.20;;
49842;SDS011;55559;48.898;9.184;2023-04-25T13:36:42;16.88;;;8.93;;
49842;SDS011;55559;48.898;9.184;2023-04-25T13:39:11;11.95;;;6.72;;
49842;SDS011;55559;48.898;9.184;2023-04-25T13:41:38;18.90;;;8.32;;
49842;SDS011;55559;48.898;9.184;2023-04-25T13:44:06;11.95;;;7.30;;
49842;SDS011;55559;48.898;9.184;2023-04-25T13:46:34;10.77;;;6.72;;
49842;SDS011;55559;48.898;9.184;2023-04-25T13:49:04;12.57;;;6.53;;
49842;SDS011;55559;48.898;9.184;2023-04-25T13:51:32;12.65;;;6.40;;
49842;SDS011;55559;48.898;9.184;2023-04-25T13:53:59;10.68;;;6.13;;
49842;SDS011;55559;48.898;9.184;2023-04-25T13:56:27;9.73;;;6.50;;
49842;SDS011;55559;48.898;9.184;2023-04-25T13:58:54;15.13;;;7.90;;
49842;SDS011;55559;48.898;9.184;2023-04-25T14:01:22;14.70;;;6.90;;
49842;SDS011;55559;48.898;9.184;2023-04-25T14:03:49;12.60;;;7.22;;
49842;SDS011;55559;48.898;9.184;2023-04-25T14:06:18;7.82;;;5.20;;
49842;SDS011;55559;48.898;9.184;2023-04-25T14:08:50;8.73;;;5.05;;
49842;SDS011;55559;48.898;9.184;2023-04-25T14:11:17;12.15;;;5.18;;
49842;SDS011;55559;48.898;9.184;2023-04-25T14:13:45;10.35;;;4.50;;
49842;SDS011;55559;48.898;9.184;2023-04-25T14:16:12;7.32;;;3.42;;
49842;SDS011;55559;48.898;9.184;2023-04-25T14:18:40;11.73;;;4.43;;
49842;SDS011;55559;48.898;9.184;2023-04-25T14:21:07;9.10;;;4.00;;
49842;SDS011;55559;48.898;9.184;2023-04-25T14:23:37;6.97;;;3.33;;
49842;SDS011;55559;48.898;9.184;2023-04-25T14:26:04;11.30;;;5.22;;
49842;SDS011;55559;48.898;9.184;2023-04-25T14:28:32;9.30;;;3.38;;
49842;SDS011;55559;48.898;9.184;2023-04-25T14:30:59;8.45;;;4.32;;
49842;SDS011;55559;48.898;9.184;2023-04-25T14:33:30;7.28;;;4.32;;
49842;SDS011;55559;48.898;9.184;2023-04-25T14:35:57;7.00;;;3.78;;
49842;SDS011;55559;48.898;9.184;2023-04-25T14:38:25;8.23;;;4.32;;
49842;SDS011;55559;48.898;9.184;2023-04-25T14:40:54;10.90;;;4.60;;
49842;SDS011;55559;48.898;9.184;2023-04-25T14:43:21;9.27;;;4.85;;
49842;SDS011;55559;48.898;9.184;2023-04-25T14:45:49;11.35;;;4.63;;
49842;SDS011;55559;48.898;9.184;2023-04-25T14:48:17;6.20;;;3.80;;
49842;SDS011;55559;48.898;9.184;2023-04-25T14:50:45;9.65;;;3.33;;
49842;SDS011;55559;48.898;9.184;2023-04-25T14:53:13;7.18;;;3.28;;
49842;SDS011;55559;48.898;9.184;2023-04-25T14:55:40;8.77;;;3.75;;
49842;SDS011;55559;48.898;9.184;2023-04-25T14:58:09;6.70;;;3.78;;
49842;SDS011;55559;48.898;9.184;2023-04-25T15:00:37;6.15;;;3.53;;
49842;SDS011;55559;48.898;9.184;2023-04-25T15:03:04;4.80;;;2.78;;
49842;SDS011;55559;48.898;9.184;2023-04-25T15:05:32;8.02;;;2.55;;
49842;SDS011;55559;48.898;9.184;2023-04-25T15:08:01;8.25;;;3.42;;
49842;SDS011;55559;48.898;9.184;2023-04-25T15:10:29;5.60;;;2.55;;
49842;SDS011;55559;48.898;9.184;2023-04-25T15:12:56;5.00;;;2.08;;